sensor_id;sensor_type;location;lat;lon;timestamp;P1;durP1;ratioP1;P2;durP2;ratioP2
17886;SDS011;9069;52.044;7.472;2022-08-07T00:01:15;1.83;;;1.30;;
17886;SDS011;9069;52.044;7.472;2022-08-07T00:04:04;2.97;;;1.40;;
17886;SDS011;9069;52.044;7.472;2022-08-07T00:06:34;3.05;;;1.52;;
17886;SDS011;9069;52.044;7.472;2022-08-07T00:09:06;3.10;;;1.92;;
17886;SDS011;9069;52.044;7.472;2022-08-07T00:11:42;1.83;;;1.40;;
17886;SDS011;9069;52.044;7.472;2022-08-07T00:14:23;2.13;;;1.38;;
17886;SDS011;9069;52.044;7.472;2022-08-07T00:16:57;2.00;;;1.48;;
17886;SDS011;9069;52.044;7.472;2022-08-07T00:19:27;3.80;;;1.58;;
17886;SDS011;9069;52.044;7.472;2022-08-07T00:22:14;1.38;;;1.23;;
17886;SDS011;9069;52.044;7.472;2022-08-07T00:25:02;3.13;;;1.50;;
17886;SDS011;9069;52.044;7.472;2022-08-07T00:27:32;2.25;;;1.50;;
17886;SDS011;9069;52.044;7.472;2022-08-07T00:30:19;3.15;;;1.40;;
17886;SDS011;9069;52.044;7.472;2022-08-07T00:32:53;3.05;;;1.50;;
17886;SDS011;9069;52.044;7.472;2022-08-07T00:35:24;2.28;;;1.30;;
17886;SDS011;9069;52.044;7.472;2022-08-07T00:37:51;1.73;;;1.23;;
17886;SDS011;9069;52.044;7.472;2022-08-07T00:40:19;2.42;;;1.60;;
17886;SDS011;9069;52.044;7.472;2022-08-07T00:43:09;2.15;;;1.33;;
17886;SDS011;9069;52.044;7.472;2022-08-07T00:45:57;1.83;;;1.02;;
17886;SDS011;9069;52.044;7.472;2022-08-07T00:48:27;2.05;;;1.30;;
17886;SDS011;9069;52.044;7.472;2022-08-07T00:50:58;2.00;;;1.45;;
17886;SDS011;9069;52.044;7.472;2022-08-07T00:53:26;3.25;;;1.70;;
17886;SDS011;9069;52.044;7.472;2022-08-07T00:56:04;1.98;;;1.30;;
17886;SDS011;9069;52.044;7.472;2022-08-07T00:58:42;2.17;;;1.33;;
17886;SDS011;9069;52.044;7.472;2022-08-07T01:01:15;1.73;;;1.27;;
17886;SDS011;9069;52.044;7.472;2022-08-07T01:03:43;1.65;;;1.20;;
17886;SDS011;9069;52.044;7.472;2022-08-07T01:06:22;3.15;;;1.38;;
17886;SDS011;9069;52.044;7.472;2022-08-07T01:08:49;2.22;;;1.67;;
17886;SDS011;9069;52.044;7.472;2022-08-07T01:11:21;3.58;;;1.30;;
17886;SDS011;9069;52.044;7.472;2022-08-07T01:14:08;1.45;;;1.20;;
17886;SDS011;9069;52.044;7.472;2022-08-07T01:16:36;2.53;;;1.23;;
17886;SDS011;9069;52.044;7.472;2022-08-07T01:19:03;2.88;;;1.35;;
17886;SDS011;9069;52.044;7.472;2022-08-07T01:21:45;2.92;;;1.35;;
17886;SDS011;9069;52.044;7.472;2022-08-07T01:24:13;1.88;;;1.05;;
17886;SDS011;9069;52.044;7.472;2022-08-07T01:26:48;1.20;;;1.05;;
17886;SDS011;9069;52.044;7.472;2022-08-07T01:29:19;2.47;;;1.48;;
17886;SDS011;9069;52.044;7.472;2022-08-07T01:31:49;2.20;;;1.20;;
17886;SDS011;9069;52.044;7.472;2022-08-07T01:34:17;2.47;;;1.13;;
17886;SDS011;9069;52.044;7.472;2022-08-07T01:36:56;1.60;;;1.27;;
17886;SDS011;9069;52.044;7.472;2022-08-07T01:39:26;5.38;;;1.48;;
17886;SDS011;9069;52.044;7.472;2022-08-07T01:42:20;1.98;;;1.10;;
17886;SDS011;9069;52.044;7.472;2022-08-07T01:45:09;1.58;;;1.40;;
17886;SDS011;9069;52.044;7.472;2022-08-07T01:47:51;5.45;;;1.35;;
17886;SDS011;9069;52.044;7.472;2022-08-07T01:50:39;3.65;;;1.40;;
17886;SDS011;9069;52.044;7.472;2022-08-07T01:53:10;1.98;;;1.42;;
17886;SDS011;9069;52.044;7.472;2022-08-07T01:55:59;1.58;;;1.20;;
17886;SDS011;9069;52.044;7.472;2022-08-07T01:58:43;3.25;;;1.38;;
17886;SDS011;9069;52.044;7.472;2022-08-07T02:01:22;3.15;;;1.20;;
17886;SDS011;9069;52.044;7.472;2022-08-07T02:04:15;3.10;;;1.40;;
17886;SDS011;9069;52.044;7.472;2022-08-07T02:07:00;1.58;;;1.13;;
17886;SDS011;9069;52.044;7.472;2022-08-07T02:09:29;1.77;;;1.50;;
17886;SDS011;9069;52.044;7.472;2022-08-07T02:12:18;1.73;;;1.20;;
17886;SDS011;9069;52.044;7.472;2022-08-07T02:14:56;3.13;;;1.60;;
17886;SDS011;9069;52.044;7.472;2022-08-07T02:17:38;2.00;;;1.50;;
17886;SDS011;9069;52.044;7.472;2022-08-07T02:20:17;3.90;;;1.77;;
17886;SDS011;9069;52.044;7.472;2022-08-07T02:22:50;5.25;;;1.60;;
17886;SDS011;9069;52.044;7.472;2022-08-07T02:25:22;2.03;;;1.52;;
17886;SDS011;9069;52.044;7.472;2022-08-07T02:28:13;5.18;;;1.30;;
17886;SDS011;9069;52.044;7.472;2022-08-07T02:30:50;2.55;;;1.80;;
17886;SDS011;9069;52.044;7.472;2022-08-07T02:33:19;4.88;;;1.50;;
17886;SDS011;9069;52.044;7.472;2022-08-07T02:35:59;2.95;;;1.67;;
17886;SDS011;9069;52.044;7.472;2022-08-07T02:38:47;2.25;;;1.60;;
17886;SDS011;9069;52.044;7.472;2022-08-07T02:41:24;2.80;;;1.35;;
17886;SDS011;9069;52.044;7.472;2022-08-07T02:44:02;2.70;;;1.40;;
17886;SDS011;9069;52.044;7.472;2022-08-07T02:46:30;2.20;;;1.38;;
17886;SDS011;9069;52.044;7.472;2022-08-07T02:49:02;2.47;;;1.60;;
17886;SDS011;9069;52.044;7.472;2022-08-07T02:51:31;3.55;;;1.65;;
17886;SDS011;9069;52.044;7.472;2022-08-07T02:54:18;2.50;;;1.80;;
17886;SDS011;9069;52.044;7.472;2022-08-07T02:56:50;4.90;;;1.60;;
17886;SDS011;9069;52.044;7.472;2022-08-07T02:59:20;2.78;;;1.45;;
17886;SDS011;9069;52.044;7.472;2022-08-07T03:01:55;2.90;;;1.77;;
17886;SDS011;9069;52.044;7.472;2022-08-07T03:04:28;1.88;;;1.45;;
17886;SDS011;9069;52.044;7.472;2022-08-07T03:06:58;3.10;;;1.88;;
17886;SDS011;9069;52.044;7.472;2022-08-07T03:09:36;2.55;;;1.73;;
17886;SDS011;9069;52.044;7.472;2022-08-07T03:12:10;3.75;;;1.92;;
17886;SDS011;9069;52.044;7.472;2022-08-07T03:14:51;2.83;;;1.85;;
17886;SDS011;9069;52.044;7.472;2022-08-07T03:17:21;3.05;;;1.83;;
17886;SDS011;9069;52.044;7.472;2022-08-07T03:19:52;4.85;;;2.42;;
17886;SDS011;9069;52.044;7.472;2022-08-07T03:22:23;2.65;;;1.83;;
17886;SDS011;9069;52.044;7.472;2022-08-07T03:24:55;2.55;;;1.83;;
17886;SDS011;9069;52.044;7.472;2022-08-07T03:27:22;3.08;;;1.77;;
17886;SDS011;9069;52.044;7.472;2022-08-07T03:30:09;3.17;;;2.00;;
17886;SDS011;9069;52.044;7.472;2022-08-07T03:32:40;5.88;;;2.13;;
17886;SDS011;9069;52.044;7.472;2022-08-07T03:35:25;3.13;;;1.85;;
17886;SDS011;9069;52.044;7.472;2022-08-07T03:38:10;3.97;;;2.05;;
17886;SDS011;9069;52.044;7.472;2022-08-07T03:40:40;6.18;;;2.20;;
17886;SDS011;9069;52.044;7.472;2022-08-07T03:43:11;3.45;;;1.95;;
17886;SDS011;9069;52.044;7.472;2022-08-07T03:45:44;4.53;;;2.70;;
17886;SDS011;9069;52.044;7.472;2022-08-07T03:48:15;3.70;;;2.15;;
17886;SDS011;9069;52.044;7.472;2022-08-07T03:50:43;2.90;;;2.30;;
17886;SDS011;9069;52.044;7.472;2022-08-07T03:53:27;2.88;;;2.05;;
17886;SDS011;9069;52.044;7.472;2022-08-07T03:56:20;3.20;;;2.58;;
17886;SDS011;9069;52.044;7.472;2022-08-07T03:59:02;3.65;;;2.45;;
17886;SDS011;9069;52.044;7.472;2022-08-07T04:01:42;2.97;;;2.25;;
17886;SDS011;9069;52.044;7.472;2022-08-07T04:04:14;2.92;;;2.28;;
17886;SDS011;9069;52.044;7.472;2022-08-07T04:06:47;4.95;;;2.83;;
17886;SDS011;9069;52.044;7.472;2022-08-07T04:09:16;2.70;;;1.98;;
17886;SDS011;9069;52.044;7.472;2022-08-07T04:11:49;5.68;;;2.90;;
17886;SDS011;9069;52.044;7.472;2022-08-07T04:14:38;5.38;;;2.67;;
17886;SDS011;9069;52.044;7.472;2022-08-07T04:17:13;2.65;;;2.17;;
17886;SDS011;9069;52.044;7.472;2022-08-07T04:19:48;3.80;;;2.70;;
17886;SDS011;9069;52.044;7.472;2022-08-07T04:22:23;3.38;;;2.28;;
17886;SDS011;9069;52.044;7.472;2022-08-07T04:24:57;3.33;;;2.63;;
17886;SDS011;9069;52.044;7.472;2022-08-07T04:27:28;4.13;;;2.45;;
17886;SDS011;9069;52.044;7.472;2022-08-07T04:30:07;4.25;;;2.53;;
17886;SDS011;9069;52.044;7.472;2022-08-07T04:32:59;7.20;;;2.80;;
17886;SDS011;9069;52.044;7.472;2022-08-07T04:35:34;6.03;;;2.90;;
17886;SDS011;9069;52.044;7.472;2022-08-07T04:38:07;4.18;;;2.92;;
17886;SDS011;9069;52.044;7.472;2022-08-07T04:40:41;5.47;;;2.70;;
17886;SDS011;9069;52.044;7.472;2022-08-07T04:43:18;3.20;;;2.53;;
17886;SDS011;9069;52.044;7.472;2022-08-07T04:52:02;3.28;;;2.67;;
17886;SDS011;9069;52.044;7.472;2022-08-07T04:57:53;3.75;;;2.53;;
17886;SDS011;9069;52.044;7.472;2022-08-07T05:00:49;4.57;;;2.88;;
17886;SDS011;9069;52.044;7.472;2022-08-07T05:06:38;3.70;;;2.63;;
17886;SDS011;9069;52.044;7.472;2022-08-07T05:09:23;5.50;;;2.47;;
17886;SDS011;9069;52.044;7.472;2022-08-07T05:12:14;4.88;;;2.75;;
17886;SDS011;9069;52.044;7.472;2022-08-07T05:14:57;3.88;;;2.88;;
17886;SDS011;9069;52.044;7.472;2022-08-07T05:17:52;5.47;;;2.53;;
17886;SDS011;9069;52.044;7.472;2022-08-07T05:20:30;4.43;;;2.97;;
17886;SDS011;9069;52.044;7.472;2022-08-07T05:23:17;5.63;;;3.13;;
17886;SDS011;9069;52.044;7.472;2022-08-07T05:25:56;4.95;;;2.67;;
17886;SDS011;9069;52.044;7.472;2022-08-07T05:28:44;4.05;;;2.83;;
17886;SDS011;9069;52.044;7.472;2022-08-07T05:31:19;6.00;;;3.08;;
17886;SDS011;9069;52.044;7.472;2022-08-07T05:34:01;5.68;;;2.83;;
17886;SDS011;9069;52.044;7.472;2022-08-07T05:36:38;4.53;;;2.92;;
17886;SDS011;9069;52.044;7.472;2022-08-07T05:39:16;4.90;;;2.97;;
17886;SDS011;9069;52.044;7.472;2022-08-07T05:42:05;7.47;;;3.15;;
17886;SDS011;9069;52.044;7.472;2022-08-07T05:44:39;6.10;;;2.90;;
17886;SDS011;9069;52.044;7.472;2022-08-07T05:47:27;4.25;;;2.60;;
17886;SDS011;9069;52.044;7.472;2022-08-07T05:50:14;6.20;;;2.95;;
17886;SDS011;9069;52.044;7.472;2022-08-07T05:52:42;4.22;;;3.00;;
17886;SDS011;9069;52.044;7.472;2022-08-07T05:55:11;7.22;;;2.70;;
17886;SDS011;9069;52.044;7.472;2022-08-07T05:57:42;6.57;;;3.63;;
17886;SDS011;9069;52.044;7.472;2022-08-07T06:00:13;5.28;;;2.92;;
17886;SDS011;9069;52.044;7.472;2022-08-07T06:02:53;4.07;;;2.70;;
17886;SDS011;9069;52.044;7.472;2022-08-07T06:05:22;5.63;;;3.30;;
17886;SDS011;9069;52.044;7.472;2022-08-07T06:07:58;4.47;;;2.85;;
17886;SDS011;9069;52.044;7.472;2022-08-07T06:10:47;4.30;;;2.80;;
17886;SDS011;9069;52.044;7.472;2022-08-07T06:13:18;6.20;;;2.65;;
17886;SDS011;9069;52.044;7.472;2022-08-07T06:16:06;3.97;;;2.53;;
17886;SDS011;9069;52.044;7.472;2022-08-07T06:18:36;4.30;;;2.92;;
17886;SDS011;9069;52.044;7.472;2022-08-07T06:21:09;4.28;;;3.08;;
17886;SDS011;9069;52.044;7.472;2022-08-07T06:23:56;4.25;;;2.95;;
17886;SDS011;9069;52.044;7.472;2022-08-07T06:26:43;3.97;;;2.75;;
17886;SDS011;9069;52.044;7.472;2022-08-07T06:29:12;4.13;;;3.15;;
17886;SDS011;9069;52.044;7.472;2022-08-07T06:31:40;5.47;;;2.70;;
17886;SDS011;9069;52.044;7.472;2022-08-07T06:34:17;4.07;;;2.65;;
17886;SDS011;9069;52.044;7.472;2022-08-07T06:36:47;5.72;;;2.67;;
17886;SDS011;9069;52.044;7.472;2022-08-07T06:39:21;4.72;;;2.60;;
17886;SDS011;9069;52.044;7.472;2022-08-07T06:42:16;4.90;;;2.45;;
17886;SDS011;9069;52.044;7.472;2022-08-07T06:45:20;5.28;;;2.90;;
17886;SDS011;9069;52.044;7.472;2022-08-07T06:47:56;3.35;;;2.90;;
17886;SDS011;9069;52.044;7.472;2022-08-07T06:50:44;3.97;;;2.72;;
17886;SDS011;9069;52.044;7.472;2022-08-07T06:53:16;6.90;;;2.53;;
17886;SDS011;9069;52.044;7.472;2022-08-07T06:56:06;3.20;;;2.30;;
17886;SDS011;9069;52.044;7.472;2022-08-07T06:58:42;3.47;;;2.35;;
17886;SDS011;9069;52.044;7.472;2022-08-07T07:01:32;3.13;;;2.30;;
17886;SDS011;9069;52.044;7.472;2022-08-07T07:04:15;3.95;;;2.38;;
17886;SDS011;9069;52.044;7.472;2022-08-07T07:06:58;3.05;;;2.15;;
17886;SDS011;9069;52.044;7.472;2022-08-07T07:09:28;2.53;;;2.10;;
17886;SDS011;9069;52.044;7.472;2022-08-07T07:20:12;4.20;;;2.25;;
17886;SDS011;9069;52.044;7.472;2022-08-07T07:22:44;3.42;;;2.30;;
17886;SDS011;9069;52.044;7.472;2022-08-07T07:25:33;2.10;;;1.90;;
17886;SDS011;9069;52.044;7.472;2022-08-07T07:28:24;3.28;;;2.33;;
17886;SDS011;9069;52.044;7.472;2022-08-07T07:31:42;2.00;;;1.45;;
17886;SDS011;9069;52.044;7.472;2022-08-07T07:34:16;1.92;;;1.75;;
17886;SDS011;9069;52.044;7.472;2022-08-07T07:36:56;2.78;;;1.80;;
17886;SDS011;9069;52.044;7.472;2022-08-07T07:39:45;2.90;;;1.55;;
17886;SDS011;9069;52.044;7.472;2022-08-07T07:42:21;2.22;;;1.60;;
17886;SDS011;9069;52.044;7.472;2022-08-07T07:45:01;5.00;;;1.70;;
17886;SDS011;9069;52.044;7.472;2022-08-07T07:47:30;3.38;;;1.33;;
17886;SDS011;9069;52.044;7.472;2022-08-07T07:50:19;2.13;;;1.48;;
17886;SDS011;9069;52.044;7.472;2022-08-07T07:53:03;3.47;;;1.58;;
17886;SDS011;9069;52.044;7.472;2022-08-07T07:55:50;1.98;;;1.27;;
17886;SDS011;9069;52.044;7.472;2022-08-07T07:58:29;2.50;;;1.42;;
17886;SDS011;9069;52.044;7.472;2022-08-07T08:01:09;4.25;;;1.45;;
17886;SDS011;9069;52.044;7.472;2022-08-07T08:03:57;2.85;;;1.73;;
17886;SDS011;9069;52.044;7.472;2022-08-07T08:06:37;1.98;;;1.30;;
17886;SDS011;9069;52.044;7.472;2022-08-07T08:09:18;1.95;;;1.17;;
17886;SDS011;9069;52.044;7.472;2022-08-07T08:11:49;1.58;;;1.15;;
17886;SDS011;9069;52.044;7.472;2022-08-07T08:14:32;2.58;;;1.33;;
17886;SDS011;9069;52.044;7.472;2022-08-07T08:17:02;2.05;;;1.10;;
17886;SDS011;9069;52.044;7.472;2022-08-07T08:19:53;2.10;;;1.10;;
17886;SDS011;9069;52.044;7.472;2022-08-07T08:22:46;3.88;;;1.10;;
17886;SDS011;9069;52.044;7.472;2022-08-07T08:25:35;1.85;;;1.10;;
17886;SDS011;9069;52.044;7.472;2022-08-07T08:28:29;0.93;;;0.85;;
17886;SDS011;9069;52.044;7.472;2022-08-07T08:31:04;1.70;;;1.00;;
17886;SDS011;9069;52.044;7.472;2022-08-07T08:33:43;3.22;;;1.08;;
17886;SDS011;9069;52.044;7.472;2022-08-07T08:36:22;1.00;;;0.90;;
17886;SDS011;9069;52.044;7.472;2022-08-07T08:38:55;1.90;;;0.60;;
17886;SDS011;9069;52.044;7.472;2022-08-07T08:44:25;1.50;;;0.40;;
17886;SDS011;9069;52.044;7.472;2022-08-07T08:47:04;3.55;;;0.60;;
17886;SDS011;9069;52.044;7.472;2022-08-07T08:50:00;3.53;;;0.55;;
17886;SDS011;9069;52.044;7.472;2022-08-07T08:53:02;1.35;;;0.73;;
17886;SDS011;9069;52.044;7.472;2022-08-07T08:55:36;0.60;;;0.50;;
17886;SDS011;9069;52.044;7.472;2022-08-07T09:04:53;0.65;;;0.47;;
17886;SDS011;9069;52.044;7.472;2022-08-07T09:10:41;1.00;;;0.60;;
17886;SDS011;9069;52.044;7.472;2022-08-07T09:24:58;1.48;;;0.82;;
17886;SDS011;9069;52.044;7.472;2022-08-07T09:28:04;1.70;;;0.80;;
17886;SDS011;9069;52.044;7.472;2022-08-07T09:31:01;1.27;;;0.60;;
17886;SDS011;9069;52.044;7.472;2022-08-07T09:36:30;0.98;;;0.60;;
17886;SDS011;9069;52.044;7.472;2022-08-07T09:39:26;1.08;;;0.65;;
17886;SDS011;9069;52.044;7.472;2022-08-07T09:45:11;0.93;;;0.55;;
17886;SDS011;9069;52.044;7.472;2022-08-07T09:48:19;0.93;;;0.50;;
17886;SDS011;9069;52.044;7.472;2022-08-07T09:51:26;1.27;;;0.68;;
17886;SDS011;9069;52.044;7.472;2022-08-07T09:54:18;2.42;;;0.55;;
17886;SDS011;9069;52.044;7.472;2022-08-07T10:00:07;1.33;;;0.50;;
17886;SDS011;9069;52.044;7.472;2022-08-07T10:05:25;1.05;;;0.60;;
17886;SDS011;9069;52.044;7.472;2022-08-07T10:11:21;0.93;;;0.60;;
17886;SDS011;9069;52.044;7.472;2022-08-07T10:17:25;1.45;;;0.50;;
17886;SDS011;9069;52.044;7.472;2022-08-07T10:20:21;0.60;;;0.52;;
17886;SDS011;9069;52.044;7.472;2022-08-07T10:25:37;1.40;;;0.68;;
17886;SDS011;9069;52.044;7.472;2022-08-07T10:34:14;1.17;;;0.60;;
17886;SDS011;9069;52.044;7.472;2022-08-07T10:42:39;0.50;;;0.50;;
17886;SDS011;9069;52.044;7.472;2022-08-07T10:45:21;1.25;;;0.52;;
17886;SDS011;9069;52.044;7.472;2022-08-07T10:48:24;1.02;;;0.70;;
17886;SDS011;9069;52.044;7.472;2022-08-07T10:51:18;1.17;;;0.50;;
17886;SDS011;9069;52.044;7.472;2022-08-07T10:54:20;0.93;;;0.50;;
17886;SDS011;9069;52.044;7.472;2022-08-07T10:57:11;0.98;;;0.50;;
17886;SDS011;9069;52.044;7.472;2022-08-07T11:00:13;3.35;;;0.70;;
17886;SDS011;9069;52.044;7.472;2022-08-07T11:03:06;0.85;;;0.57;;
17886;SDS011;9069;52.044;7.472;2022-08-07T11:06:22;0.75;;;0.47;;
17886;SDS011;9069;52.044;7.472;2022-08-07T11:08:59;0.60;;;0.55;;
17886;SDS011;9069;52.044;7.472;2022-08-07T11:11:45;4.72;;;0.60;;
17886;SDS011;9069;52.044;7.472;2022-08-07T11:14:25;3.60;;;0.57;;
17886;SDS011;9069;52.044;7.472;2022-08-07T11:17:40;4.13;;;0.63;;
17886;SDS011;9069;52.044;7.472;2022-08-07T11:20:25;0.63;;;0.50;;
17886;SDS011;9069;52.044;7.472;2022-08-07T11:35:00;1.25;;;0.50;;
17886;SDS011;9069;52.044;7.472;2022-08-07T11:40:45;0.57;;;0.50;;
17886;SDS011;9069;52.044;7.472;2022-08-07T11:43:45;1.95;;;0.73;;
17886;SDS011;9069;52.044;7.472;2022-08-07T11:46:49;1.13;;;0.70;;
17886;SDS011;9069;52.044;7.472;2022-08-07T11:53:19;0.57;;;0.57;;
17886;SDS011;9069;52.044;7.472;2022-08-07T11:56:17;0.73;;;0.47;;
17886;SDS011;9069;52.044;7.472;2022-08-07T12:08:10;2.10;;;0.68;;
17886;SDS011;9069;52.044;7.472;2022-08-07T12:11:02;2.28;;;0.63;;
17886;SDS011;9069;52.044;7.472;2022-08-07T12:16:39;1.02;;;0.60;;
17886;SDS011;9069;52.044;7.472;2022-08-07T12:19:14;1.17;;;0.43;;
17886;SDS011;9069;52.044;7.472;2022-08-07T12:28:39;1.05;;;0.55;;
17886;SDS011;9069;52.044;7.472;2022-08-07T12:31:21;1.20;;;0.50;;
17886;SDS011;9069;52.044;7.472;2022-08-07T12:34:12;0.93;;;0.50;;
17886;SDS011;9069;52.044;7.472;2022-08-07T12:36:40;4.13;;;0.70;;
17886;SDS011;9069;52.044;7.472;2022-08-07T12:39:15;1.40;;;0.70;;
17886;SDS011;9069;52.044;7.472;2022-08-07T12:42:05;0.68;;;0.60;;
17886;SDS011;9069;52.044;7.472;2022-08-07T12:44:37;1.50;;;0.77;;
17886;SDS011;9069;52.044;7.472;2022-08-07T12:50:05;0.98;;;0.60;;
17886;SDS011;9069;52.044;7.472;2022-08-07T12:53:09;2.75;;;0.55;;
17886;SDS011;9069;52.044;7.472;2022-08-07T12:56:06;2.35;;;0.55;;
17886;SDS011;9069;52.044;7.472;2022-08-07T12:58:56;2.08;;;0.73;;
17886;SDS011;9069;52.044;7.472;2022-08-07T13:07:15;0.82;;;0.70;;
17886;SDS011;9069;52.044;7.472;2022-08-07T13:16:16;0.70;;;0.68;;
17886;SDS011;9069;52.044;7.472;2022-08-07T13:19:15;0.60;;;0.60;;
17886;SDS011;9069;52.044;7.472;2022-08-07T13:22:18;1.23;;;0.68;;
17886;SDS011;9069;52.044;7.472;2022-08-07T13:25:05;1.38;;;0.50;;
17886;SDS011;9069;52.044;7.472;2022-08-07T13:27:55;1.30;;;0.60;;
17886;SDS011;9069;52.044;7.472;2022-08-07T13:30:41;1.48;;;0.63;;
17886;SDS011;9069;52.044;7.472;2022-08-07T13:33:28;1.33;;;0.50;;
17886;SDS011;9069;52.044;7.472;2022-08-07T13:36:30;1.55;;;0.98;;
17886;SDS011;9069;52.044;7.472;2022-08-07T13:42:04;0.35;;;0.35;;
17886;SDS011;9069;52.044;7.472;2022-08-07T13:44:35;0.45;;;0.45;;
17886;SDS011;9069;52.044;7.472;2022-08-07T13:47:06;4.82;;;0.70;;
17886;SDS011;9069;52.044;7.472;2022-08-07T13:49:45;0.60;;;0.57;;
17886;SDS011;9069;52.044;7.472;2022-08-07T13:52:35;0.60;;;0.60;;
17886;SDS011;9069;52.044;7.472;2022-08-07T13:55:10;1.63;;;0.70;;
17886;SDS011;9069;52.044;7.472;2022-08-07T13:57:51;0.88;;;0.60;;
17886;SDS011;9069;52.044;7.472;2022-08-07T14:00:57;1.58;;;1.00;;
17886;SDS011;9069;52.044;7.472;2022-08-07T14:03:38;9.70;;;0.80;;
17886;SDS011;9069;52.044;7.472;2022-08-07T14:06:30;0.65;;;0.50;;
17886;SDS011;9069;52.044;7.472;2022-08-07T14:08:58;2.55;;;0.80;;
17886;SDS011;9069;52.044;7.472;2022-08-07T14:11:31;0.77;;;0.60;;
17886;SDS011;9069;52.044;7.472;2022-08-07T14:14:29;0.90;;;0.65;;
17886;SDS011;9069;52.044;7.472;2022-08-07T14:17:13;0.95;;;0.75;;
17886;SDS011;9069;52.044;7.472;2022-08-07T14:20:03;2.70;;;0.70;;
17886;SDS011;9069;52.044;7.472;2022-08-07T14:23:15;2.13;;;0.70;;
17886;SDS011;9069;52.044;7.472;2022-08-07T14:26:11;2.28;;;0.85;;
17886;SDS011;9069;52.044;7.472;2022-08-07T14:28:57;0.80;;;0.80;;
17886;SDS011;9069;52.044;7.472;2022-08-07T14:31:36;1.10;;;0.70;;
17886;SDS011;9069;52.044;7.472;2022-08-07T14:34:18;2.85;;;0.80;;
17886;SDS011;9069;52.044;7.472;2022-08-07T14:36:55;1.13;;;0.90;;
17886;SDS011;9069;52.044;7.472;2022-08-07T14:39:29;0.70;;;0.70;;
17886;SDS011;9069;52.044;7.472;2022-08-07T14:42:21;4.53;;;0.90;;
17886;SDS011;9069;52.044;7.472;2022-08-07T14:44:57;2.60;;;0.80;;
17886;SDS011;9069;52.044;7.472;2022-08-07T14:47:46;1.58;;;0.80;;
17886;SDS011;9069;52.044;7.472;2022-08-07T14:50:14;2.35;;;0.95;;
17886;SDS011;9069;52.044;7.472;2022-08-07T14:52:45;0.70;;;0.60;;
17886;SDS011;9069;52.044;7.472;2022-08-07T14:55:15;2.38;;;0.70;;
17886;SDS011;9069;52.044;7.472;2022-08-07T14:57:45;2.03;;;0.80;;
17886;SDS011;9069;52.044;7.472;2022-08-07T15:00:34;2.00;;;0.60;;
17886;SDS011;9069;52.044;7.472;2022-08-07T15:03:05;1.40;;;0.90;;
17886;SDS011;9069;52.044;7.472;2022-08-07T15:05:44;1.27;;;0.80;;
17886;SDS011;9069;52.044;7.472;2022-08-07T15:08:29;0.75;;;0.63;;
17886;SDS011;9069;52.044;7.472;2022-08-07T15:11:23;1.10;;;0.90;;
17886;SDS011;9069;52.044;7.472;2022-08-07T15:14:14;0.80;;;0.77;;
17886;SDS011;9069;52.044;7.472;2022-08-07T15:16:46;1.65;;;0.90;;
17886;SDS011;9069;52.044;7.472;2022-08-07T15:19:36;1.40;;;0.82;;
17886;SDS011;9069;52.044;7.472;2022-08-07T15:22:31;1.58;;;0.70;;
17886;SDS011;9069;52.044;7.472;2022-08-07T15:25:19;2.22;;;0.75;;
17886;SDS011;9069;52.044;7.472;2022-08-07T15:28:03;1.60;;;0.90;;
17886;SDS011;9069;52.044;7.472;2022-08-07T15:30:52;2.63;;;1.00;;
17886;SDS011;9069;52.044;7.472;2022-08-07T15:33:42;1.67;;;1.10;;
17886;SDS011;9069;52.044;7.472;2022-08-07T15:36:15;0.80;;;0.80;;
17886;SDS011;9069;52.044;7.472;2022-08-07T15:39:06;2.60;;;0.88;;
17886;SDS011;9069;52.044;7.472;2022-08-07T15:41:38;2.20;;;0.90;;
17886;SDS011;9069;52.044;7.472;2022-08-07T15:44:47;0.90;;;0.82;;
17886;SDS011;9069;52.044;7.472;2022-08-07T15:47:17;1.35;;;0.90;;
17886;SDS011;9069;52.044;7.472;2022-08-07T15:50:07;0.60;;;0.60;;
17886;SDS011;9069;52.044;7.472;2022-08-07T15:52:58;0.80;;;0.80;;
17886;SDS011;9069;52.044;7.472;2022-08-07T15:55:30;1.05;;;0.90;;
17886;SDS011;9069;52.044;7.472;2022-08-07T15:58:20;1.02;;;0.60;;
17886;SDS011;9069;52.044;7.472;2022-08-07T16:01:00;0.82;;;0.82;;
17886;SDS011;9069;52.044;7.472;2022-08-07T16:03:30;1.48;;;1.00;;
17886;SDS011;9069;52.044;7.472;2022-08-07T16:06:26;1.52;;;0.80;;
17886;SDS011;9069;52.044;7.472;2022-08-07T16:09:01;0.95;;;0.82;;
17886;SDS011;9069;52.044;7.472;2022-08-07T16:40:33;1.30;;;0.88;;
17886;SDS011;9069;52.044;7.472;2022-08-07T16:46:48;0.98;;;0.70;;
17886;SDS011;9069;52.044;7.472;2022-08-07T16:53:38;0.80;;;0.80;;
17886;SDS011;9069;52.044;7.472;2022-08-07T17:05:39;2.85;;;0.90;;
17886;SDS011;9069;52.044;7.472;2022-08-07T17:11:52;0.70;;;0.70;;
17886;SDS011;9069;52.044;7.472;2022-08-07T17:14:49;0.80;;;0.70;;
17886;SDS011;9069;52.044;7.472;2022-08-07T17:20:35;2.50;;;1.27;;
17886;SDS011;9069;52.044;7.472;2022-08-07T17:26:17;1.75;;;0.90;;
17886;SDS011;9069;52.044;7.472;2022-08-07T17:29:11;0.90;;;0.80;;
17886;SDS011;9069;52.044;7.472;2022-08-07T17:32:02;1.23;;;1.10;;
17886;SDS011;9069;52.044;7.472;2022-08-07T17:35:12;1.17;;;1.08;;
17886;SDS011;9069;52.044;7.472;2022-08-07T17:38:12;1.00;;;0.80;;
17886;SDS011;9069;52.044;7.472;2022-08-07T17:41:21;1.15;;;1.05;;
17886;SDS011;9069;52.044;7.472;2022-08-07T17:44:20;1.23;;;0.93;;
17886;SDS011;9069;52.044;7.472;2022-08-07T17:47:10;2.88;;;0.98;;
17886;SDS011;9069;52.044;7.472;2022-08-07T17:50:05;2.47;;;0.90;;
17886;SDS011;9069;52.044;7.472;2022-08-07T17:52:54;0.73;;;0.70;;
17886;SDS011;9069;52.044;7.472;2022-08-07T17:55:33;2.80;;;0.90;;
17886;SDS011;9069;52.044;7.472;2022-08-07T17:58:34;1.70;;;1.10;;
17886;SDS011;9069;52.044;7.472;2022-08-07T18:04:22;1.25;;;0.98;;
17886;SDS011;9069;52.044;7.472;2022-08-07T18:09:52;3.67;;;1.38;;
17886;SDS011;9069;52.044;7.472;2022-08-07T18:12:38;2.45;;;1.30;;
17886;SDS011;9069;52.044;7.472;2022-08-07T18:15:18;2.38;;;1.20;;
17886;SDS011;9069;52.044;7.472;2022-08-07T18:18:12;2.28;;;1.17;;
17886;SDS011;9069;52.044;7.472;2022-08-07T18:21:37;2.20;;;1.75;;
17886;SDS011;9069;52.044;7.472;2022-08-07T18:30:08;1.20;;;1.10;;
17886;SDS011;9069;52.044;7.472;2022-08-07T18:36:08;1.10;;;1.00;;
17886;SDS011;9069;52.044;7.472;2022-08-07T18:44:45;2.22;;;1.50;;
17886;SDS011;9069;52.044;7.472;2022-08-07T18:47:53;2.63;;;2.25;;
17886;SDS011;9069;52.044;7.472;2022-08-07T18:50:44;2.70;;;1.40;;
17886;SDS011;9069;52.044;7.472;2022-08-07T18:53:30;2.00;;;1.27;;
17886;SDS011;9069;52.044;7.472;2022-08-07T18:56:51;2.15;;;1.45;;
17886;SDS011;9069;52.044;7.472;2022-08-07T19:00:04;1.20;;;1.10;;
17886;SDS011;9069;52.044;7.472;2022-08-07T19:03:04;1.85;;;1.30;;
17886;SDS011;9069;52.044;7.472;2022-08-07T19:05:50;1.40;;;1.30;;
17886;SDS011;9069;52.044;7.472;2022-08-07T19:08:40;4.10;;;1.50;;
17886;SDS011;9069;52.044;7.472;2022-08-07T19:11:14;10.15;;;1.50;;
17886;SDS011;9069;52.044;7.472;2022-08-07T19:14:12;2.33;;;1.30;;
17886;SDS011;9069;52.044;7.472;2022-08-07T19:16:48;3.08;;;1.30;;
17886;SDS011;9069;52.044;7.472;2022-08-07T19:22:28;2.78;;;1.50;;
17886;SDS011;9069;52.044;7.472;2022-08-07T19:25:14;1.70;;;1.60;;
17886;SDS011;9069;52.044;7.472;2022-08-07T19:28:06;2.75;;;1.45;;
17886;SDS011;9069;52.044;7.472;2022-08-07T19:31:06;4.13;;;1.50;;
17886;SDS011;9069;52.044;7.472;2022-08-07T19:34:01;1.88;;;1.48;;
17886;SDS011;9069;52.044;7.472;2022-08-07T19:36:29;4.38;;;1.63;;
17886;SDS011;9069;52.044;7.472;2022-08-07T19:39:05;2.22;;;1.60;;
17886;SDS011;9069;52.044;7.472;2022-08-07T19:41:42;2.88;;;1.52;;
17886;SDS011;9069;52.044;7.472;2022-08-07T19:44:34;3.83;;;1.55;;
17886;SDS011;9069;52.044;7.472;2022-08-07T19:47:08;1.83;;;1.52;;
17886;SDS011;9069;52.044;7.472;2022-08-07T19:49:48;3.88;;;1.30;;
17886;SDS011;9069;52.044;7.472;2022-08-07T19:52:24;3.03;;;1.70;;
17886;SDS011;9069;52.044;7.472;2022-08-07T19:54:53;3.83;;;1.52;;
17886;SDS011;9069;52.044;7.472;2022-08-07T19:57:24;3.22;;;1.88;;
17886;SDS011;9069;52.044;7.472;2022-08-07T20:00:12;2.70;;;1.65;;
17886;SDS011;9069;52.044;7.472;2022-08-07T20:03:01;2.15;;;1.40;;
17886;SDS011;9069;52.044;7.472;2022-08-07T20:05:57;1.98;;;1.65;;